Planet Ace — 3EYF9 — position and weather

sailwx.info

Track history (hours):
 
Tides and Currents Weather Stations Pressure Air Temp Water Temp Dewpoint Dewpoint Depression Visibility Wind Speed Wind Dir Waves Ship Positions

Planet Ace

Last reported at 2017-Feb-21 18:24 UTC. Time now 2017-Feb-21 19:04 UTC.
Position N 36°03' W 004°56'.

Length 188 m; beam 28.2 m.

Type: Cargo ship. MMSI: 352168000.

Date/timePositionNaut miles runAvg speedWind from/ knotsBaromVisibWave heightAir tempDewpointWater temp
2017-Feb-21 18:24N 36°03' W 004°56'6 6.6
2017-Feb-21 17:33N 36°01' W 005°03'7 6.7
2017-Feb-21 16:33N 35°60' W 005°11'7 6.9
2017-Feb-21 15:33N 35°59' W 005°19'7 6.6
2017-Feb-21 14:33N 35°58' W 005°27'2 2.4
2017-Feb-21 13:33N 35°59' W 005°30'1212.3
2017-Feb-21 12:33N 36°02' W 005°15'1312.4
2017-Feb-21 11:32N 36°05' W 004°60'15 7.5
2017-Feb-21 09:30N 36°18' W 004°50'5 4.8
2017-Feb-21 08:32N 36°16' W 004°56'13 1.3
2017-Feb-20 22:33N 36°04' W 004°55'7 6.5
2017-Feb-20 21:31N 36°01' W 005°02'7 7.2
2017-Feb-20 20:33N 36°00' W 005°11'7 6.8
2017-Feb-20 19:33N 35°59' W 005°19'5 5.3
2017-Feb-20 18:33N 35°57' W 005°25'7 7.4
2017-Feb-20 17:33N 35°55' W 005°34'9 8.9
2017-Feb-20 16:33N 35°54' W 005°45'21310.9
2017-Feb-19 21:04N 37°26' W 009°44'912.4
2017-Feb-19 20:21N 37°34' W 009°46'1012.5
2017-Feb-19 19:33N 37°44' W 009°49'1312.3
2017-Feb-19 18:31N 37°56' W 009°53'1212.3
2017-Feb-19 17:33N 38°08' W 009°56'1212.3
2017-Feb-19 16:33N 38°20' W 009°60'1413.9
2017-Feb-19 15:33N 38°33' W 010°04'1514.9
2017-Feb-19 14:34N 38°48' W 010°05'1515.0
2017-Feb-19 13:34N 39°03' W 010°04'1514.8
2017-Feb-19 12:33N 39°18' W 010°04'60314.4
2017-Feb-17 18:33N 48°52' W 005°48'1313.0
2017-Feb-17 17:33N 49°01' W 005°33'3214.5
2017-Feb-17 15:20N 49°21' W 004°55'1315.4
2017-Feb-17 14:30N 49°30' W 004°40'1415.4
2017-Feb-17 13:33N 49°40' W 004°24'1515.0
2017-Feb-17 12:33N 49°50' W 004°07'1414.4
2017-Feb-17 11:33N 49°60' W 003°51'1413.8
2017-Feb-17 10:33N 50°10' W 003°35'1313.3
2017-Feb-17 09:33N 50°21' W 003°25'9 8.5
2017-Feb-17 08:34N 50°26' W 003°14'1616.3
2017-Feb-17 07:34N 50°26' W 002°49'1817.7
2017-Feb-17 06:33N 50°26' W 002°21'1918.5
2017-Feb-17 05:32N 50°26' W 001°51'2118.6
2017-Feb-17 04:24N 50°25' W 001°18'1517.8
2017-Feb-17 03:33N 50°25' W 000°55'1616.1
2017-Feb-17 02:34N 50°29' W 000°30'1515.0
2017-Feb-17 01:33N 50°31' W 000°07'1414.1
2017-Feb-17 00:33N 50°35' E 000°15'2914.5
2017-Feb-16 22:33N 50°48' E 000°56'1717.3
2017-Feb-16 21:34N 50°58' E 001°17'1717.2
2017-Feb-16 20:34N 51°09' E 001°39'1615.8
2017-Feb-16 19:33N 51°21' E 001°54'1313.0
2017-Feb-16 18:33N 51°21' E 002°15'1414.4
2017-Feb-16 17:33N 51°23' E 002°38'1211.7
2017-Feb-16 16:33N 51°23' E 002°57'1010.0
2017-Feb-16 15:33N 51°21' E 003°12'1 1.2
2017-Feb-16 14:31N 51°20' E 003°13'2 1.8
2017-Feb-16 13:33N 51°18' E 003°14'0 0.0
2017-Feb-16 12:33N 51°18' E 003°14'0 0.0
2017-Feb-16 11:33N 51°18' E 003°14'0 0.0
2017-Feb-16 10:33N 51°18' E 003°14'0 0.0
2017-Feb-16 09:33N 51°18' E 003°14'0 0.0
2017-Feb-16 08:33N 51°18' E 003°14'0 0.0
2017-Feb-16 07:33N 51°18' E 003°14'0 0.0
2017-Feb-16 06:33N 51°18' E 003°14'0 0.0
2017-Feb-16 05:33N 51°18' E 003°14'2 1.9
2017-Feb-16 04:34N 51°20' E 003°13'2 1.7
2017-Feb-16 03:33N 51°22' E 003°12'1313.0
2017-Feb-16 02:33N 51°25' E 002°52'6 5.6
2017-Feb-16 01:33N 51°28' E 002°44'1615.8
2017-Feb-16 00:33N 51°39' E 003°02'2216.3
2017-Feb-15 23:11N 51°59' E 003°19'1316.1
2017-Feb-15 22:21N 52°12' E 003°24'1515.7
2017-Feb-15 21:23N 52°23' E 003°41'1214.5
2017-Feb-15 20:32N 52°31' E 003°57'1515.2
2017-Feb-15 19:34N 52°30' E 004°21'10 9.6
2017-Feb-15 18:33N 52°28' E 004°36'1 0.9
2017-Feb-15 17:33N 52°28' E 004°38'6 5.9
2017-Feb-15 16:33N 52°26' E 004°47'2 1.7
2017-Feb-15 15:33N 52°24' E 004°49'0 0.0
2017-Feb-15 14:33N 52°24' E 004°49'0 0.0
2017-Feb-15 13:33N 52°24' E 004°49'0 0.0
2017-Feb-15 12:33N 52°24' E 004°49'0 0.0
2017-Feb-15 11:33N 52°24' E 004°49'0 0.0
2017-Feb-15 10:33N 52°24' E 004°49'0 0.0
2017-Feb-15 09:33N 52°24' E 004°49'0 0.0
2017-Feb-15 08:33N 52°24' E 004°49'0 0.0
2017-Feb-15 07:33N 52°24' E 004°49'0 0.0
2017-Feb-15 06:33N 52°24' E 004°49'0 0.0
2017-Feb-15 05:33N 52°24' E 004°49'0 0.0
2017-Feb-15 04:33N 52°24' E 004°49'0 0.0
2017-Feb-15 03:33N 52°24' E 004°49'0 0.0
2017-Feb-15 02:32N 52°24' E 004°49'0 0.0
2017-Feb-15 01:32N 52°24' E 004°49'0 0.0
2017-Feb-15 00:32N 52°24' E 004°49'0 0.0
2017-Feb-14 23:32N 52°24' E 004°49'0 0.0
2017-Feb-14 22:29N 52°24' E 004°49'0 0.0
2017-Feb-14 21:32N 52°24' E 004°49'0 0.0
2017-Feb-14 20:32N 52°24' E 004°49'0 0.0
2017-Feb-14 19:32N 52°24' E 004°49'0 0.0
2017-Feb-14 18:32N 52°24' E 004°49'0 0.5
2017-Feb-14 17:33N 52°25' E 004°49'7 7.3
2017-Feb-14 16:34N 52°28' E 004°38'3 3.0
2017-Feb-14 15:34N 52°28' E 004°33'9 9.2
2017-Feb-14 14:33N 52°28' E 004°18'1211.6
2017-Feb-14 13:33N 52°36' E 004°04'1414.3
2017-Feb-14 12:33N 52°47' E 003°49'9 1.8
2017-Feb-14 07:32N 52°55' E 003°40'1 1.4
2017-Feb-14 06:31N 52°54' E 003°42'2 1.6
2017-Feb-14 05:19N 52°53' E 003°45'13813.4
2017-Feb-13 19:03N 54°17' E 000°41'714.7
2017-Feb-13 18:33N 54°21' E 000°30'1514.7
2017-Feb-13 17:33N 54°29' E 000°09'1514.9
2017-Feb-13 16:33N 54°37' W 000°13'3414.8
2017-Feb-13 14:16N 54°55' W 001°03'1014.4
2017-Feb-13 13:33N 54°60' W 001°18'6 5.6
2017-Feb-13 12:33N 54°59' W 001°28'0 0.0
2017-Feb-13 11:31N 54°59' W 001°28'0 0.0
2017-Feb-13 10:31N 54°59' W 001°28'0 0.0
2017-Feb-13 09:31N 54°59' W 001°28'0 0.0
2017-Feb-13 08:31N 54°59' W 001°28'0 0.0
2017-Feb-13 07:13N 54°59' W 001°28'0 0.0
2017-Feb-13 06:25N 54°59' W 001°28'0 0.0
2017-Feb-13 05:31N 54°59' W 001°28'0 0.0
2017-Feb-13 04:31N 54°59' W 001°28'0 0.0
2017-Feb-13 03:31N 54°59' W 001°28'0 0.0
2017-Feb-13 02:34N 54°59' W 001°28'0 0.0
2017-Feb-13 01:31N 54°59' W 001°28'0 0.0
2017-Feb-13 00:30N 54°59' W 001°28'0 0.0
2017-Feb-12 23:30N 54°59' W 001°28'0 0.0
2017-Feb-12 22:30N 54°59' W 001°28'0 0.0
2017-Feb-12 21:06N 54°59' W 001°28'0 0.0
2017-Feb-12 19:33N 54°59' W 001°28'0 0.0
2017-Feb-12 18:33N 54°59' W 001°28'0 0.0
2017-Feb-12 17:30N 54°59' W 001°28'0 0.0
2017-Feb-12 16:30N 54°59' W 001°28'0 0.0
2017-Feb-12 15:33N 54°59' W 001°28'0 0.0
2017-Feb-12 14:33N 54°59' W 001°28'0 0.0
2017-Feb-12 13:33N 54°59' W 001°28'0 0.0
2017-Feb-12 12:33N 54°59' W 001°28'0 0.0
2017-Feb-12 11:30N 54°59' W 001°28'0 0.0
2017-Feb-12 10:30N 54°59' W 001°28'0 0.0
2017-Feb-12 09:33N 54°59' W 001°28'0 0.0
2017-Feb-12 08:33N 54°59' W 001°28'0 0.0
2017-Feb-12 07:33N 54°59' W 001°28'0 0.0
2017-Feb-12 06:33N 54°59' W 001°28'0 0.0
2017-Feb-12 05:33N 54°59' W 001°28'0 0.0
2017-Feb-12 04:33N 54°59' W 001°28'0 0.0
2017-Feb-12 03:33N 54°59' W 001°28'0 0.0
2017-Feb-12 02:30N 54°59' W 001°28'0 0.0
2017-Feb-12 01:33N 54°59' W 001°28'0 0.0
2017-Feb-12 00:33N 54°59' W 001°28'0 0.0
2017-Feb-11 23:33N 54°59' W 001°28'0 0.0
2017-Feb-11 22:33N 54°59' W 001°28'0 0.0
2017-Feb-11 21:33N 54°59' W 001°28'0 0.0
2017-Feb-11 20:33N 54°59' W 001°28'0 0.0
2017-Feb-11 19:33N 54°59' W 001°28'0 0.0
2017-Feb-11 18:33N 54°59' W 001°28'  
Track history (hours):
 
Tides and Currents Weather Stations Pressure Air Temp Water Temp Dewpoint Dewpoint Depression Visibility Wind Speed Wind Dir Waves Ship Positions

Planet Ace

Last reported at 2017-Feb-21 18:24 UTC. Time now 2017-Feb-21 19:04 UTC.
Position N 36°03' W 004°56'.

Length 188 m; beam 28.2 m.

Type: Cargo ship. MMSI: 352168000.

Date/timePositionNaut miles runAvg speedWind from/ knotsBaromVisibWave heightAir tempDewpointWater temp
2017-Feb-21 18:24N 36°03' W 004°56'6 6.6
2017-Feb-21 17:33N 36°01' W 005°03'7 6.7
2017-Feb-21 16:33N 35°60' W 005°11'7 6.9
2017-Feb-21 15:33N 35°59' W 005°19'7 6.6
2017-Feb-21 14:33N 35°58' W 005°27'2 2.4
2017-Feb-21 13:33N 35°59' W 005°30'1212.3
2017-Feb-21 12:33N 36°02' W 005°15'1312.4
2017-Feb-21 11:32N 36°05' W 004°60'15 7.5
2017-Feb-21 09:30N 36°18' W 004°50'5 4.8
2017-Feb-21 08:32N 36°16' W 004°56'13 1.3
2017-Feb-20 22:33N 36°04' W 004°55'7 6.5
2017-Feb-20 21:31N 36°01' W 005°02'7 7.2
2017-Feb-20 20:33N 36°00' W 005°11'7 6.8
2017-Feb-20 19:33N 35°59' W 005°19'5 5.3
2017-Feb-20 18:33N 35°57' W 005°25'7 7.4
2017-Feb-20 17:33N 35°55' W 005°34'9 8.9
2017-Feb-20 16:33N 35°54' W 005°45'21310.9
2017-Feb-19 21:04N 37°26' W 009°44'912.4
2017-Feb-19 20:21N 37°34' W 009°46'1012.5
2017-Feb-19 19:33N 37°44' W 009°49'1312.3
2017-Feb-19 18:31N 37°56' W 009°53'1212.3
2017-Feb-19 17:33N 38°08' W 009°56'1212.3
2017-Feb-19 16:33N 38°20' W 009°60'1413.9
2017-Feb-19 15:33N 38°33' W 010°04'1514.9
2017-Feb-19 14:34N 38°48' W 010°05'1515.0
2017-Feb-19 13:34N 39°03' W 010°04'1514.8
2017-Feb-19 12:33N 39°18' W 010°04'60314.4
2017-Feb-17 18:33N 48°52' W 005°48'1313.0
2017-Feb-17 17:33N 49°01' W 005°33'3214.5
2017-Feb-17 15:20N 49°21' W 004°55'1315.4
2017-Feb-17 14:30N 49°30' W 004°40'1415.4
2017-Feb-17 13:33N 49°40' W 004°24'1515.0
2017-Feb-17 12:33N 49°50' W 004°07'1414.4
2017-Feb-17 11:33N 49°60' W 003°51'1413.8
2017-Feb-17 10:33N 50°10' W 003°35'1313.3
2017-Feb-17 09:33N 50°21' W 003°25'9 8.5
2017-Feb-17 08:34N 50°26' W 003°14'1616.3
2017-Feb-17 07:34N 50°26' W 002°49'1817.7
2017-Feb-17 06:33N 50°26' W 002°21'1918.5
2017-Feb-17 05:32N 50°26' W 001°51'2118.6
2017-Feb-17 04:24N 50°25' W 001°18'1517.8
2017-Feb-17 03:33N 50°25' W 000°55'1616.1
2017-Feb-17 02:34N 50°29' W 000°30'1515.0
2017-Feb-17 01:33N 50°31' W 000°07'1414.1
2017-Feb-17 00:33N 50°35' E 000°15'2914.5
2017-Feb-16 22:33N 50°48' E 000°56'1717.3
2017-Feb-16 21:34N 50°58' E 001°17'1717.2
2017-Feb-16 20:34N 51°09' E 001°39'1615.8
2017-Feb-16 19:33N 51°21' E 001°54'1313.0
2017-Feb-16 18:33N 51°21' E 002°15'1414.4
2017-Feb-16 17:33N 51°23' E 002°38'1211.7
2017-Feb-16 16:33N 51°23' E 002°57'1010.0
2017-Feb-16 15:33N 51°21' E 003°12'1 1.2
2017-Feb-16 14:31N 51°20' E 003°13'2 1.8
2017-Feb-16 13:33N 51°18' E 003°14'0 0.0
2017-Feb-16 12:33N 51°18' E 003°14'0 0.0
2017-Feb-16 11:33N 51°18' E 003°14'0 0.0
2017-Feb-16 10:33N 51°18' E 003°14'0 0.0
2017-Feb-16 09:33N 51°18' E 003°14'0 0.0
2017-Feb-16 08:33N 51°18' E 003°14'0 0.0
2017-Feb-16 07:33N 51°18' E 003°14'0 0.0
2017-Feb-16 06:33N 51°18' E 003°14'0 0.0
2017-Feb-16 05:33N 51°18' E 003°14'2 1.9
2017-Feb-16 04:34N 51°20' E 003°13'2 1.7
2017-Feb-16 03:33N 51°22' E 003°12'1313.0
2017-Feb-16 02:33N 51°25' E 002°52'6 5.6
2017-Feb-16 01:33N 51°28' E 002°44'1615.8
2017-Feb-16 00:33N 51°39' E 003°02'2216.3
2017-Feb-15 23:11N 51°59' E 003°19'1316.1
2017-Feb-15 22:21N 52°12' E 003°24'1515.7
2017-Feb-15 21:23N 52°23' E 003°41'1214.5
2017-Feb-15 20:32N 52°31' E 003°57'1515.2
2017-Feb-15 19:34N 52°30' E 004°21'10 9.6
2017-Feb-15 18:33N 52°28' E 004°36'1 0.9
2017-Feb-15 17:33N 52°28' E 004°38'6 5.9
2017-Feb-15 16:33N 52°26' E 004°47'2 1.7
2017-Feb-15 15:33N 52°24' E 004°49'0 0.0
2017-Feb-15 14:33N 52°24' E 004°49'0 0.0
2017-Feb-15 13:33N 52°24' E 004°49'0 0.0
2017-Feb-15 12:33N 52°24' E 004°49'0 0.0
2017-Feb-15 11:33N 52°24' E 004°49'0 0.0
2017-Feb-15 10:33N 52°24' E 004°49'0 0.0
2017-Feb-15 09:33N 52°24' E 004°49'0 0.0
2017-Feb-15 08:33N 52°24' E 004°49'0 0.0
2017-Feb-15 07:33N 52°24' E 004°49'0 0.0
2017-Feb-15 06:33N 52°24' E 004°49'0 0.0
2017-Feb-15 05:33N 52°24' E 004°49'0 0.0
2017-Feb-15 04:33N 52°24' E 004°49'0 0.0
2017-Feb-15 03:33N 52°24' E 004°49'0 0.0
2017-Feb-15 02:32N 52°24' E 004°49'0 0.0
2017-Feb-15 01:32N 52°24' E 004°49'0 0.0
2017-Feb-15 00:32N 52°24' E 004°49'0 0.0
2017-Feb-14 23:32N 52°24' E 004°49'0 0.0
2017-Feb-14 22:29N 52°24' E 004°49'0 0.0
2017-Feb-14 21:32N 52°24' E 004°49'0 0.0
2017-Feb-14 20:32N 52°24' E 004°49'0 0.0
2017-Feb-14 19:32N 52°24' E 004°49'0 0.0
2017-Feb-14 18:32N 52°24' E 004°49'0 0.5
2017-Feb-14 17:33N 52°25' E 004°49'7 7.3
2017-Feb-14 16:34N 52°28' E 004°38'3 3.0
2017-Feb-14 15:34N 52°28' E 004°33'9 9.2
2017-Feb-14 14:33N 52°28' E 004°18'1211.6
2017-Feb-14 13:33N 52°36' E 004°04'1414.3
2017-Feb-14 12:33N 52°47' E 003°49'9 1.8
2017-Feb-14 07:32N 52°55' E 003°40'1 1.4
2017-Feb-14 06:31N 52°54' E 003°42'2 1.6
2017-Feb-14 05:19N 52°53' E 003°45'13813.4
2017-Feb-13 19:03N 54°17' E 000°41'714.7
2017-Feb-13 18:33N 54°21' E 000°30'1514.7
2017-Feb-13 17:33N 54°29' E 000°09'1514.9
2017-Feb-13 16:33N 54°37' W 000°13'3414.8
2017-Feb-13 14:16N 54°55' W 001°03'1014.4
2017-Feb-13 13:33N 54°60' W 001°18'6 5.6
2017-Feb-13 12:33N 54°59' W 001°28'0 0.0
2017-Feb-13 11:31N 54°59' W 001°28'0 0.0
2017-Feb-13 10:31N 54°59' W 001°28'0 0.0
2017-Feb-13 09:31N 54°59' W 001°28'0 0.0
2017-Feb-13 08:31N 54°59' W 001°28'0 0.0
2017-Feb-13 07:13N 54°59' W 001°28'0 0.0
2017-Feb-13 06:25N 54°59' W 001°28'0 0.0
2017-Feb-13 05:31N 54°59' W 001°28'0 0.0
2017-Feb-13 04:31N 54°59' W 001°28'0 0.0
2017-Feb-13 03:31N 54°59' W 001°28'0 0.0
2017-Feb-13 02:34N 54°59' W 001°28'0 0.0
2017-Feb-13 01:31N 54°59' W 001°28'0 0.0
2017-Feb-13 00:30N 54°59' W 001°28'0 0.0
2017-Feb-12 23:30N 54°59' W 001°28'0 0.0
2017-Feb-12 22:30N 54°59' W 001°28'0 0.0
2017-Feb-12 21:06N 54°59' W 001°28'0 0.0
2017-Feb-12 19:33N 54°59' W 001°28'0 0.0
2017-Feb-12 18:33N 54°59' W 001°28'0 0.0
2017-Feb-12 17:30N 54°59' W 001°28'0 0.0
2017-Feb-12 16:30N 54°59' W 001°28'0 0.0
2017-Feb-12 15:33N 54°59' W 001°28'0 0.0
2017-Feb-12 14:33N 54°59' W 001°28'0 0.0
2017-Feb-12 13:33N 54°59' W 001°28'0 0.0
2017-Feb-12 12:33N 54°59' W 001°28'0 0.0
2017-Feb-12 11:30N 54°59' W 001°28'0 0.0
2017-Feb-12 10:30N 54°59' W 001°28'0 0.0
2017-Feb-12 09:33N 54°59' W 001°28'0 0.0
2017-Feb-12 08:33N 54°59' W 001°28'0 0.0
2017-Feb-12 07:33N 54°59' W 001°28'0 0.0
2017-Feb-12 06:33N 54°59' W 001°28'0 0.0
2017-Feb-12 05:33N 54°59' W 001°28'0 0.0
2017-Feb-12 04:33N 54°59' W 001°28'0 0.0
2017-Feb-12 03:33N 54°59' W 001°28'0 0.0
2017-Feb-12 02:30N 54°59' W 001°28'0 0.0
2017-Feb-12 01:33N 54°59' W 001°28'0 0.0
2017-Feb-12 00:33N 54°59' W 001°28'0 0.0
2017-Feb-11 23:33N 54°59' W 001°28'0 0.0
2017-Feb-11 22:33N 54°59' W 001°28'0 0.0
2017-Feb-11 21:33N 54°59' W 001°28'0 0.0
2017-Feb-11 20:33N 54°59' W 001°28'0 0.0
2017-Feb-11 19:33N 54°59' W 001°28'0 0.0
2017-Feb-11 18:33N 54°59' W 001°28'  

Dump ship's entire track history